»·PEaware :: ASA107 KSEA-PANC

ASA107 :: KSEA-PANC

FLIGHT INFORMATION

Flight Status: Arrived
Operator:
Alaska Airlines
More flights by this operator :: More flights under this callsign
Pilot: Kyle K. (11122)
Aircraft: BOEING 737-800
(B738)
More flights by this aircraft type
Origin: KSEA Seattle-Tacoma Intl
United States
Destination: PANC Stevens Anchorage Intl
United States
More flights between these airports :: More routes between these airports
Route: BANGR9 ARRIE FOCHE PRYCE BKA LAIRE JOH WITTI4
File this flight plan on PilotEdge
Remarks:
Altitude:
(Current/Filed)
38,000ft
Speed:
(Current/Filed)
458kts
Departed: 19-Feb-21 06:08 PM
Arrived: 19-Feb-21 09:31 PM
Distance/Time
Traveled:
1255nm/3:23
Distance/Time
To Go:
Arrived

Flight Plot

Page will automatically refresh every two minutes.

Flight plan parsing failed; only flown route is shown


Map Options




Map Legend


Flown Route
Filed Route
Departure Airport
Arrival Airport
Navaid (VOR, NDB)
Fix

Horizontal Profiles

Position Reports

Time Latitude Longitude Heading Altitude Ground
Speed
19-Feb-21 17:28 47.445175 -122.301872 132 436ft 0kts
19-Feb-21 17:29 47.445175 -122.301872 132 436ft 0kts
19-Feb-21 17:30 47.445175 -122.301872 132 436ft 0kts
19-Feb-21 17:31 47.445175 -122.301872 132 436ft 0kts
19-Feb-21 17:32 47.445175 -122.301872 132 436ft 0kts
19-Feb-21 17:33 47.445175 -122.301872 132 436ft 0kts
19-Feb-21 17:34 47.445175 -122.301872 132 436ft 0kts
19-Feb-21 17:35 47.445175 -122.301872 132 436ft 0kts
19-Feb-21 17:36 47.445175 -122.301872 132 436ft 0kts
19-Feb-21 17:37 47.445175 -122.301872 132 436ft 0kts
19-Feb-21 17:38 47.445175 -122.301872 132 436ft 0kts
19-Feb-21 17:39 47.445175 -122.301872 132 436ft 0kts
19-Feb-21 17:40 47.445175 -122.301872 132 436ft 0kts
19-Feb-21 17:41 47.445175 -122.301872 132 436ft 0kts
19-Feb-21 17:42 47.445175 -122.301872 132 436ft 0kts
19-Feb-21 17:43 47.445175 -122.301872 132 436ft 0kts
19-Feb-21 17:44 47.445175 -122.301872 132 436ft 0kts
19-Feb-21 17:45 47.445175 -122.301872 132 436ft 0kts
19-Feb-21 17:46 47.445175 -122.301872 132 436ft 0kts
19-Feb-21 17:47 47.445175 -122.301872 132 436ft 0kts
19-Feb-21 17:48 47.445175 -122.301872 132 436ft 0kts
19-Feb-21 17:49 47.445175 -122.301872 132 436ft 0kts
19-Feb-21 17:50 47.445175 -122.301872 132 436ft 0kts
19-Feb-21 17:51 47.445175 -122.301872 132 436ft 0kts
19-Feb-21 17:52 47.445175 -122.301872 132 436ft 0kts
19-Feb-21 17:53 47.445175 -122.301872 132 436ft 0kts
19-Feb-21 17:54 47.445175 -122.301872 132 436ft 0kts
19-Feb-21 17:55 47.445175 -122.301872 132 436ft 0kts
19-Feb-21 17:56 47.445176 -122.301872 132 436ft 0kts
19-Feb-21 17:57 47.445176 -122.301872 132 436ft 0kts
19-Feb-21 17:58 47.445549 -122.302409 156 436ft 2kts
19-Feb-21 17:59 47.446125 -122.302264 226 436ft 2kts
19-Feb-21 18:00 47.446276 -122.301764 268 436ft 0kts
19-Feb-21 18:01 47.446279 -122.301831 275 436ft 4kts
19-Feb-21 18:02 47.447660 -122.304328 267 436ft 3kts
19-Feb-21 18:03 47.448549 -122.305260 1 436ft 14kts
19-Feb-21 18:04 47.453756 -122.305062 0 436ft 12kts
19-Feb-21 18:05 47.458240 -122.305014 0 436ft 18kts
19-Feb-21 18:06 47.462216 -122.305060 355 436ft 12kts
19-Feb-21 18:07 47.462161 -122.307774 183 436ft 48kts
19-Feb-21 18:08 47.421959 -122.307080 180 2523ft 166kts
19-Feb-21 18:09 47.372203 -122.309509 183 5080ft 188kts
19-Feb-21 18:10 47.320790 -122.333427 235 7354ft 232kts
19-Feb-21 18:11 47.310574 -122.430078 274 10170ft 269kts
19-Feb-21 18:12 47.355224 -122.542554 315 10945ft 375kts
19-Feb-21 18:13 47.436430 -122.646544 316 13591ft 395kts
19-Feb-21 18:14 47.520778 -122.755007 315 16368ft 410kts
19-Feb-21 18:15 47.607853 -122.867593 315 18890ft 423kts
19-Feb-21 18:16 47.681503 -123.003279 299 21180ft 428kts
19-Feb-21 18:17 47.743252 -123.149139 299 23139ft 440kts
19-Feb-21 18:18 47.808937 -123.304895 299 24983ft 451kts
19-Feb-21 18:19 47.881667 -123.459649 313 26665ft 465kts
19-Feb-21 18:20 47.981440 -123.581725 319 28768ft 463kts
19-Feb-21 18:21 48.083714 -123.695989 319 30782ft 457kts
19-Feb-21 18:22 48.185332 -123.807968 319 32650ft 451kts
19-Feb-21 18:23 48.285808 -123.918656 319 34354ft 446kts
19-Feb-21 18:24 48.385257 -124.028565 319 35820ft 444kts
19-Feb-21 18:26 48.484244 -124.138446 319 37061ft 443kts
19-Feb-21 18:27 48.583005 -124.248592 319 38160ft 442kts
19-Feb-21 18:28 48.681623 -124.359119 319 39111ft 442kts
19-Feb-21 18:29 48.780268 -124.470225 319 39947ft 443kts
19-Feb-21 18:30 48.878892 -124.581842 319 40063ft 440kts
19-Feb-21 18:31 48.976508 -124.692968 318 40046ft 440kts
19-Feb-21 18:32 49.074413 -124.805057 318 40028ft 441kts
19-Feb-21 18:33 49.171646 -124.918473 319 40027ft 441kts
19-Feb-21 18:34 49.269290 -125.031248 319 40027ft 441kts
19-Feb-21 18:35 49.366783 -125.143875 319 40032ft 441kts
19-Feb-21 18:36 49.464620 -125.257300 319 40026ft 441kts
19-Feb-21 18:37 49.562214 -125.370976 319 40023ft 441kts
19-Feb-21 18:38 49.659802 -125.485218 319 40018ft 441kts
19-Feb-21 18:39 49.756844 -125.599404 319 40019ft 441kts
19-Feb-21 18:40 49.854119 -125.714512 318 40018ft 440kts
19-Feb-21 18:41 49.951154 -125.829946 318 40018ft 440kts
19-Feb-21 18:42 50.048228 -125.945977 319 40018ft 440kts
19-Feb-21 18:43 50.144921 -126.062145 318 40018ft 440kts
19-Feb-21 18:44 50.241758 -126.179095 319 40018ft 440kts
19-Feb-21 18:45 50.338280 -126.296278 318 40020ft 440kts
19-Feb-21 18:46 50.434829 -126.414114 319 40024ft 440kts
19-Feb-21 18:46 50.515006 -126.512446 318 40027ft 440kts
19-Feb-21 18:48 50.627261 -126.650852 318 40027ft 440kts
19-Feb-21 18:49 50.723329 -126.770093 318 40027ft 440kts
19-Feb-21 18:49 50.803315 -126.869814 318 40027ft 440kts
19-Feb-21 18:51 50.915064 -127.009845 318 40027ft 439kts
19-Feb-21 18:51 50.994124 -127.109469 319 40027ft 436kts
19-Feb-21 18:52 51.088812 -127.229394 320 40028ft 437kts
19-Feb-21 18:54 51.199439 -127.370246 320 40027ft 437kts
19-Feb-21 18:54 51.278207 -127.471099 320 40027ft 436kts
19-Feb-21 18:55 51.372718 -127.592703 320 40027ft 437kts
19-Feb-21 18:56 51.467184 -127.714985 320 40027ft 437kts
19-Feb-21 18:57 51.561065 -127.837193 320 40027ft 437kts
19-Feb-21 18:58 51.655221 -127.960356 320 40027ft 437kts
19-Feb-21 18:59 51.749184 -128.083945 320 40027ft 436kts
19-Feb-21 19:00 51.843062 -128.208101 320 40027ft 437kts
19-Feb-21 19:01 51.936709 -128.332639 320 40027ft 437kts
19-Feb-21 19:02 52.030055 -128.457459 320 40027ft 437kts
19-Feb-21 19:03 52.123405 -128.582996 320 40027ft 437kts
19-Feb-21 19:04 52.216659 -128.709168 319 39997ft 437kts
19-Feb-21 19:05 52.310069 -128.836591 319 39847ft 437kts
19-Feb-21 19:06 52.404615 -128.960079 320 39771ft 435kts
19-Feb-21 19:07 52.499300 -129.081833 320 39770ft 434kts
19-Feb-21 19:08 52.593869 -129.203467 320 39779ft 432kts
19-Feb-21 19:09 52.688590 -129.325786 320 39788ft 433kts
19-Feb-21 19:10 52.783164 -129.448553 320 39783ft 433kts
19-Feb-21 19:11 52.877286 -129.571419 320 39793ft 433kts
19-Feb-21 19:12 52.971426 -129.695053 320 39798ft 433kts
19-Feb-21 19:13 53.065737 -129.819696 319 39799ft 436kts
19-Feb-21 19:14 53.161122 -129.946336 319 39798ft 439kts
19-Feb-21 19:15 53.256358 -130.073517 319 39798ft 439kts
19-Feb-21 19:16 53.350773 -130.200386 319 39798ft 437kts
19-Feb-21 19:17 53.445584 -130.328546 319 39799ft 439kts
19-Feb-21 19:18 53.540142 -130.457073 319 39798ft 438kts
19-Feb-21 19:19 53.634482 -130.586104 319 39799ft 439kts
19-Feb-21 19:20 53.729227 -130.716468 318 39798ft 439kts
19-Feb-21 19:21 53.823266 -130.846692 318 39798ft 438kts
19-Feb-21 19:22 53.916784 -130.976957 317 39798ft 435kts
19-Feb-21 19:23 54.009454 -131.106851 317 39802ft 432kts
19-Feb-21 19:24 54.100354 -131.236336 318 39807ft 406kts
19-Feb-21 19:25 54.185450 -131.356859 318 39820ft 402kts
19-Feb-21 19:26 54.271342 -131.479007 318 39820ft 400kts
19-Feb-21 19:27 54.356429 -131.600974 318 39826ft 401kts
19-Feb-21 19:28 54.441724 -131.724087 318 39814ft 402kts
19-Feb-21 19:29 54.526764 -131.847538 318 39793ft 400kts
19-Feb-21 19:30 54.611722 -131.971403 318 39800ft 401kts
19-Feb-21 19:31 54.696421 -132.095542 318 39792ft 401kts
19-Feb-21 19:32 54.781208 -132.220568 318 39799ft 400kts
19-Feb-21 19:33 54.865618 -132.345705 318 39768ft 401kts
19-Feb-21 19:34 54.950280 -132.471909 317 39762ft 405kts
19-Feb-21 19:35 55.036442 -132.600842 317 39761ft 412kts
19-Feb-21 19:36 55.123334 -132.731802 316 39761ft 413kts
19-Feb-21 19:37 55.209656 -132.863014 316 39763ft 412kts
19-Feb-21 19:38 55.296090 -132.995005 316 39761ft 413kts
19-Feb-21 19:39 55.381390 -133.126152 316 39732ft 404kts
19-Feb-21 19:40 55.465085 -133.255836 316 39714ft 399kts
19-Feb-21 19:41 55.548207 -133.385277 316 39716ft 400kts
19-Feb-21 19:42 55.631420 -133.515309 316 39716ft 400kts
19-Feb-21 19:43 55.714638 -133.646136 316 39715ft 400kts
19-Feb-21 19:44 55.797398 -133.777441 315 39716ft 398kts
19-Feb-21 19:45 55.879754 -133.908626 315 39717ft 400kts
19-Feb-21 19:46 55.962277 -134.040709 315 39696ft 399kts
19-Feb-21 19:47 56.044658 -134.173426 315 39653ft 399kts
19-Feb-21 19:48 56.126938 -134.306730 315 39653ft 401kts
19-Feb-21 19:49 56.209182 -134.440627 315 39651ft 400kts
19-Feb-21 19:50 56.290999 -134.574857 315 39652ft 399kts
19-Feb-21 19:51 56.372914 -134.710134 315 39644ft 399kts
19-Feb-21 19:52 56.454308 -134.845572 314 39623ft 398kts
19-Feb-21 19:53 56.535553 -134.981299 315 39614ft 395kts
19-Feb-21 19:54 56.615010 -135.115308 315 39615ft 388kts
19-Feb-21 19:55 56.693531 -135.248477 315 39615ft 387kts
19-Feb-21 19:56 56.772348 -135.382466 315 39615ft 388kts
19-Feb-21 19:57 56.850516 -135.517555 309 39612ft 387kts
19-Feb-21 19:58 56.914549 -135.674793 306 39616ft 387kts
19-Feb-21 19:59 56.980024 -135.830371 307 39615ft 386kts
19-Feb-21 20:00 57.046782 -135.986993 306 39615ft 395kts
19-Feb-21 20:01 57.115021 -136.147565 305 39616ft 403kts
19-Feb-21 20:02 57.184136 -136.311032 305 39732ft 405kts
19-Feb-21 20:03 57.253000 -136.475075 304 39962ft 405kts
19-Feb-21 20:04 57.321461 -136.639288 304 39999ft 402kts
19-Feb-21 20:05 57.389226 -136.803348 304 40000ft 402kts
19-Feb-21 20:06 57.456574 -136.967308 305 39999ft 399kts
19-Feb-21 20:07 57.523597 -137.131496 305 40000ft 399kts
19-Feb-21 20:08 57.590665 -137.296838 305 40000ft 401kts
19-Feb-21 20:09 57.657182 -137.461948 305 40000ft 399kts
19-Feb-21 20:10 57.723437 -137.627596 305 40000ft 398kts
19-Feb-21 20:11 57.789459 -137.794207 304 39999ft 399kts
19-Feb-21 20:12 57.855463 -137.961647 304 39999ft 400kts
19-Feb-21 20:13 57.921200 -138.129504 304 40000ft 398kts
19-Feb-21 20:14 57.986597 -138.297607 304 39920ft 400kts
19-Feb-21 20:15 58.052009 -138.466906 304 39530ft 399kts
19-Feb-21 20:16 58.116575 -138.635336 304 39452ft 399kts
19-Feb-21 20:17 58.181395 -138.805874 303 39450ft 400kts
19-Feb-21 20:18 58.246013 -138.976905 303 39450ft 398kts
19-Feb-21 20:19 58.309583 -139.146484 303 39450ft 391kts
19-Feb-21 20:20 58.371715 -139.313693 303 39451ft 385kts
19-Feb-21 20:21 58.433502 -139.480736 303 39451ft 387kts
19-Feb-21 20:22 58.495151 -139.648450 303 39451ft 387kts
19-Feb-21 20:23 58.556492 -139.817112 302 39450ft 387kts
19-Feb-21 20:24 58.617970 -139.986940 303 39479ft 389kts
19-Feb-21 20:25 58.679453 -140.157648 302 39478ft 389kts
19-Feb-21 20:26 58.740563 -140.328726 303 39478ft 389kts
19-Feb-21 20:27 58.801364 -140.500209 303 39478ft 388kts
19-Feb-21 20:28 58.854813 -140.680007 297 39479ft 388kts
19-Feb-21 20:29 58.908468 -140.860355 299 39478ft 390kts
19-Feb-21 20:30 58.964468 -141.042324 299 39477ft 394kts
19-Feb-21 20:31 59.020421 -141.224255 299 39478ft 396kts
19-Feb-21 20:32 59.077026 -141.409419 299 39477ft 401kts
19-Feb-21 20:33 59.133448 -141.595389 298 39478ft 399kts
19-Feb-21 20:34 59.189400 -141.781784 298 39478ft 399kts
19-Feb-21 20:35 59.245028 -141.968451 298 39478ft 399kts
19-Feb-21 20:36 59.300682 -142.156468 298 39478ft 399kts
19-Feb-21 20:37 59.355947 -142.344653 298 39478ft 399kts
19-Feb-21 20:38 59.410803 -142.532961 298 39478ft 399kts
19-Feb-21 20:39 59.465547 -142.722651 297 39409ft 399kts
19-Feb-21 20:40 59.519773 -142.912433 297 39359ft 396kts
19-Feb-21 20:41 59.573194 -143.100706 297 39359ft 393kts
19-Feb-21 20:42 59.626233 -143.289044 297 39359ft 394kts
19-Feb-21 20:43 59.679090 -143.478138 297 39359ft 394kts
19-Feb-21 20:44 59.731767 -143.668204 296 39360ft 394kts
19-Feb-21 20:45 59.783822 -143.858286 296 39359ft 393kts
19-Feb-21 20:46 59.835878 -144.049449 296 39359ft 393kts
19-Feb-21 20:47 59.887600 -144.240841 296 39359ft 393kts
19-Feb-21 20:48 59.938976 -144.432546 296 39359ft 393kts
19-Feb-21 20:49 59.990346 -144.625879 296 39359ft 393kts
19-Feb-21 20:50 60.041076 -144.819099 296 39359ft 393kts
19-Feb-21 20:51 60.091658 -145.013055 296 39359ft 393kts
19-Feb-21 20:52 60.141737 -145.206667 296 39359ft 390kts
19-Feb-21 20:53 60.191233 -145.399810 296 39359ft 390kts
19-Feb-21 20:54 60.240586 -145.593754 295 39359ft 390kts
19-Feb-21 20:55 60.289593 -145.788698 295 39359ft 390kts
19-Feb-21 20:56 60.338208 -145.983543 295 39360ft 390kts
19-Feb-21 20:57 60.386570 -146.178785 295 39393ft 390kts
19-Feb-21 20:58 60.434821 -146.375254 295 39444ft 390kts
19-Feb-21 21:00 60.481710 -146.572173 288 39437ft 388kts
19-Feb-21 21:01 60.510803 -146.770180 287 39451ft 383kts
19-Feb-21 21:02 60.543545 -146.975748 288 39305ft 379kts
19-Feb-21 21:03 60.576433 -147.178107 288 36589ft 373kts
19-Feb-21 21:04 60.607941 -147.373193 287 34329ft 357kts
19-Feb-21 21:05 60.638618 -147.565150 288 31859ft 376kts
19-Feb-21 21:06 60.670823 -147.768777 287 29647ft 362kts
19-Feb-21 21:07 60.701321 -147.964590 287 27683ft 363kts
19-Feb-21 21:08 60.730493 -148.154004 287 25711ft 352kts
19-Feb-21 21:09 60.758345 -148.343004 287 23673ft 336kts
19-Feb-21 21:10 60.785125 -148.527029 287 21702ft 336kts
19-Feb-21 21:11 60.811283 -148.704726 287 19799ft 333kts
19-Feb-21 21:12 60.837070 -148.882087 287 17810ft 314kts
19-Feb-21 21:13 60.861992 -149.054640 286 16266ft 318kts
19-Feb-21 21:14 60.886446 -149.222923 290 14436ft 311kts
19-Feb-21 21:15 60.919785 -149.384067 293 12519ft 298kts
19-Feb-21 21:16 60.952164 -149.538027 293 11092ft 272kts
19-Feb-21 21:17 60.979974 -149.671587 293 10383ft 240kts
19-Feb-21 21:18 61.015586 -149.786823 318 9416ft 249kts
19-Feb-21 21:19 61.068961 -149.875002 320 8205ft 242kts
19-Feb-21 21:20 61.105076 -149.975271 278 7044ft 242kts
19-Feb-21 21:21 61.103393 -150.117267 270 5722ft 245kts
19-Feb-21 21:22 61.101717 -150.253650 270 4536ft 222kts
19-Feb-21 21:22 61.100370 -150.354957 270 3534ft 201kts
19-Feb-21 21:23 61.105993 -150.461492 326 2496ft 175kts
19-Feb-21 21:25 61.158018 -150.427373 49 2085ft 179kts
19-Feb-21 21:25 61.167137 -150.348110 92 2012ft 174kts
19-Feb-21 21:26 61.167336 -150.247476 91 2019ft 174kts
19-Feb-21 21:27 61.167595 -150.162572 91 1322ft 129kts
19-Feb-21 21:28 61.167721 -150.088539 90 585ft 128kts
19-Feb-21 21:29 61.167824 -150.020247 89 160ft 72kts
19-Feb-21 21:30 61.168033 -149.998210 75 159ft 28kts
19-Feb-21 21:31 61.171853 -149.989342 53 159ft 17kts
19-Feb-21 21:32 61.173245 -149.985425 140 159ft 6kts
19-Feb-21 21:33 61.173057 -149.985087 138 159ft 0kts

Navigation Log

Ident Type
Flight plan parsing failed, navigation log unavailable